Flight Information

DEPARTURE
SAN JOSE, CA
Elevation:
62
Runways:
12L/30R - 11000x150 - CONC-G
12R/30L - 11000x150 - CONC-G
ATIS:
126.95 408-980-8459
Clearance Delivery:
118
Ground:
121.7
Tower:
SAN JOSE TOWER 124.0
DESTINATION
,
Elevation:
TPA:
1000 (est.)


6891.1 NM69° True-15° Var54° HDG

Flight Plan:
(click to file on line)

1. Type
2. Aircraft Identification
3. Aircraft Type / Special Equipment
4. True Airspeed
kts
5. Departure Airport
(ICAO code)
6. Arriving Airport
(ICAO code)
7. Cruising Altitude
ft
8. Alternate Airport
(ICAO code)
9. Route of Flight
10. Remarks


00:00:00 Departure ATIS: Destination ATIS:

Clearance Limit:
Route:
Altitude: Expect in minutes
Frequency:
Transponder: (7500 Hijack / 7600 Lost Comms / 7700 Emergency)


KSJC 261253Z 36004KT 9SM FEW005 BKN010 OVC014 16/13 A2999 RMK AO2 SLP153 T01560133
Time: 2022-06-26T12:53:00Z
1656251495
Winds: 360 @ 4 kts
Visibility: 9.0 sm
Clouds (AGL): FEW 500
BKN 1000
OVC 1400
Temperature: 15.6 C
Dew Point: 13.3 C
Pressure: 29.991142 in Hgbr


Notes:

Data extracted from FAA Digital Chart Supplement. Effective: 0901Z Thursday, 27 JAN 2022 to 0900z Thursday, 24 MAR 2022
Current ATIS data is provided courtisy of PilotEdge.